Weather at Cumberland Regional Health Care Centre Heliport

Public forecast

Using degrees Celsius for public forecast. Weather courtesy of forecast.io.

Closest aviation weather report (METAR) to Cumberland Regional Health Care Centre Heliport

Closest report is Greater Moncton Roméo LeBlanc International Airport, 27.4 nm (50.7 km) NW.

2024/05/29 11:00 (retrieved 1 hour ago)

CYQM 291100Z 23011G16KT 15SM OVC008 15/13 A2966 RMK SF8 SLP046 DENSITY ALT 600FT

Closest aviation forecast (TAF) to Cumberland Regional Health Care Centre Heliport

Closest forecast is Greater Moncton Roméo LeBlanc International Airport, 27.4 nm (50.7 km) NW.

2024/05/29 12:42 (retrieved 0 seconds ago)

TAF CYQM 291140Z 2912/3012 23012KT P6SM OVC008 TEMPO 2912/2914 SCT010 BKN025 FM291400 24015G25KT P6SM BKN030 TEMPO 2914/2922 BKN020 FM292200 27012KT P6SM SCT040 FM300200 32007KT P6SM BKN050 FM300700 25008KT P6SM FEW050 RMK NXT FCST BY 291800Z